Time;durP1;ratioP1;P1;durP2;ratioP2;P2;SDS_P1;SDS_P2;PMS_P1;PMS_P2;Temp;Humidity;BMP_temperature;BMP_pressure;BME280_temperature;BME280_humidity;BME280_pressure;Samples;Min_cycle;Max_cycle;Signal;HPM_P1;HPM_P2
2023/09/26 00:02:14;;;;;;;10.30;9.02;;;13.30;80.20;;;12.22;100.00;96562.09;6087886;23;20014;-64
2023/09/26 00:04:40;;;;;;;10.75;9.63;;;13.40;80.30;;;12.22;100.00;96573.47;6064184;23;20077;-64
2023/09/26 00:07:05;;;;;;;10.43;9.38;;;13.40;80.40;;;12.22;100.00;96573.47;6064877;23;20002;-63
2023/09/26 00:09:31;;;;;;;12.43;9.73;;;13.40;80.20;;;12.24;100.00;96571.47;6088740;23;20018;-63
2023/09/26 00:11:57;;;;;;;10.63;9.52;;;13.30;79.50;;;12.21;100.00;96571.81;6089669;23;20531;-65
2023/09/26 00:14:23;;;;;;;11.38;9.40;;;13.30;79.60;;;12.18;100.00;96577.47;6064254;23;20030;-64
2023/09/26 00:16:49;;;;;;;11.57;9.48;;;13.20;79.50;;;12.14;100.00;96564.84;6088531;23;20018;-65
2023/09/26 00:19:15;;;;;;;14.55;10.43;;;13.20;79.30;;;12.12;100.00;96572.97;6064882;23;20085;-64
2023/09/26 00:21:41;;;;;;;16.92;10.57;;;13.20;78.90;;;12.08;100.00;96574.34;6088479;23;20018;-63
2023/09/26 00:24:07;;;;;;;15.90;10.73;;;13.20;78.80;;;12.03;100.00;96571.44;6040197;23;20831;-64
2023/09/26 00:26:32;;;;;;;13.35;10.80;;;13.20;78.60;;;12.02;100.00;96571.63;6064653;23;20034;-64
2023/09/26 00:28:58;;;;;;;16.38;9.65;;;13.20;78.30;;;11.98;100.00;96576.44;6063818;23;20317;-65
2023/09/26 00:31:24;;;;;;;13.88;8.02;;;13.10;78.20;;;11.94;100.00;96569.91;6061535;23;20089;-64
2023/09/26 00:33:50;;;;;;;7.07;5.45;;;13.10;77.90;;;11.88;100.00;96563.56;6065043;23;20003;-66
2023/09/26 00:36:16;;;;;;;7.95;5.60;;;13.10;77.90;;;11.85;100.00;96561.31;6063786;23;20018;-65
2023/09/26 00:38:41;;;;;;;8.70;5.07;;;13.00;77.80;;;11.81;100.00;96556.59;6040476;23;20337;-64
2023/09/26 00:41:10;;;;;;;5.68;4.80;;;13.00;77.90;;;11.79;100.00;96558.59;6087657;23;20101;-65
2023/09/26 00:43:38;;;;;;;7.35;5.40;;;12.90;78.10;;;11.76;100.00;96556.28;6064711;23;20077;-64
2023/09/26 00:46:05;;;;;;;6.15;5.18;;;12.90;78.20;;;11.74;100.00;96568.81;6041435;23;20030;-65
2023/09/26 00:48:31;;;;;;;7.32;5.50;;;12.90;78.20;;;11.71;100.00;96569.19;6040975;23;20013;-66
2023/09/26 00:50:57;;;;;;;8.35;6.25;;;12.90;78.30;;;11.69;100.00;96561.47;6064527;23;20069;-66
2023/09/26 00:53:23;;;;;;;7.35;6.00;;;12.80;78.30;;;11.68;100.00;96569.56;6063725;23;20022;-66
2023/09/26 00:55:54;;;;;;;8.30;6.50;;;12.80;78.50;;;11.68;100.00;96565.13;6064511;23;20014;-67
2023/09/26 00:58:19;;;;;;;10.48;7.13;;;12.90;78.40;;;11.65;100.00;96566.31;6040288;23;20006;-66
2023/09/26 01:00:45;;;;;;;9.32;7.38;;;12.80;78.80;;;11.63;100.00;96563.03;6065479;23;20006;-66
2023/09/26 01:03:11;;;;;;;10.02;8.15;;;12.80;78.90;;;11.62;100.00;96560.59;6065473;23;20030;-67
2023/09/26 01:05:37;;;;;;;11.98;8.60;;;12.70;78.90;;;11.60;100.00;96559.97;6090071;23;20010;-65
2023/09/26 01:08:04;;;;;;;14.02;9.48;;;12.80;79.10;;;11.60;100.00;96555.50;6041944;23;20042;-66
2023/09/26 01:10:30;;;;;;;12.63;10.07;;;12.80;79.10;;;11.59;100.00;96558.31;6066069;23;20030;-66
2023/09/26 01:12:56;;;;;;;14.55;11.18;;;12.80;79.40;;;11.58;100.00;96557.50;6066608;23;20021;-67
2023/09/26 01:15:43;;;;;;;11.30;8.95;;;12.70;79.40;;;11.56;100.00;96562.16;6018191;23;20006;-65
2023/09/26 01:18:14;;;;;;;12.77;8.82;;;12.70;78.90;;;11.52;100.00;96555.59;6042488;23;20015;-68
2023/09/26 01:20:43;;;;;;;9.75;8.20;;;12.70;78.90;;;11.49;100.00;96560.41;6067209;23;20073;-66
2023/09/26 01:23:10;;;;;;;9.63;8.00;;;12.70;78.90;;;11.48;100.00;96564.88;6065687;23;20026;-66
2023/09/26 01:25:36;;;;;;;12.48;7.82;;;12.60;78.90;;;11.45;100.00;96557.31;6066550;23;20007;-67
2023/09/26 01:28:07;;;;;;;9.80;6.90;;;12.70;78.80;;;11.44;100.00;96562.78;6042420;23;20010;-65
2023/09/26 01:30:37;;;;;;;;;;;12.60;78.80;;;11.40;100.00;96567.59;6065031;23;20015;-65
2023/09/26 01:33:04;;;;;;;6.65;5.63;;;12.60;78.70;;;11.36;100.00;96568.97;6089179;23;19925;-64
2023/09/26 01:35:29;;;;;;;6.75;5.28;;;12.60;78.80;;;11.33;100.00;96566.72;6042150;23;20528;-67
2023/09/26 01:37:55;;;;;;;6.47;5.35;;;12.60;78.90;;;11.31;100.00;96563.41;6066126;23;20033;-66
2023/09/26 01:40:21;;;;;;;7.18;5.50;;;12.60;79.00;;;11.30;100.00;96561.78;6065509;23;20432;-65
2023/09/26 01:42:47;;;;;;;7.65;5.38;;;12.50;79.00;;;11.26;100.00;96568.41;6090328;23;20045;-65
2023/09/26 01:45:12;;;;;;;7.93;5.40;;;12.50;79.20;;;11.21;100.00;96568.16;6065179;23;20042;-66
2023/09/26 01:47:44;;;;;;;7.03;5.22;;;12.40;79.30;;;11.16;100.00;96576.59;6039181;23;20353;-68
2023/09/26 01:50:10;;;;;;;6.13;4.68;;;12.40;79.30;;;11.15;100.00;96576.78;6065823;23;20061;-67
2023/09/26 01:52:36;;;;;;;5.60;4.80;;;12.30;79.30;;;11.13;100.00;96576.13;6064942;23;20448;-66
2023/09/26 01:55:06;;;;;;;5.80;5.15;;;12.30;79.60;;;11.10;100.00;96571.25;6089502;23;20077;-64
2023/09/26 01:57:32;;;;;;;6.50;5.45;;;12.30;79.90;;;11.05;100.00;96567.31;6089386;23;20037;-66
2023/09/26 02:00:11;;;;;;;8.68;5.75;;;12.30;80.00;;;11.05;100.00;96562.03;6065778;23;20014;-66
2023/09/26 02:02:44;;;;;;;7.85;6.47;;;12.30;80.10;;;11.02;100.00;96553.69;6044736;23;20520;-66
2023/09/26 02:05:13;;;;;;;7.70;6.30;;;12.30;80.30;;;11.01;100.00;96557.31;6065364;23;20110;-66
2023/09/26 02:07:38;;;;;;;9.55;6.78;;;12.20;80.30;;;11.00;100.00;96567.03;6065747;23;20014;-66
2023/09/26 02:10:05;;;;;;;8.57;6.05;;;12.20;80.20;;;11.00;100.00;96572.31;6066773;23;20014;-66
2023/09/26 02:12:32;;;;;;;10.00;6.30;;;12.20;80.00;;;10.99;100.00;96562.78;6064719;23;20018;-67
2023/09/26 02:14:57;;;;;;;8.40;6.10;;;12.20;80.00;;;10.98;100.00;96562.94;6089468;23;20014;-66
2023/09/26 02:17:23;;;;;;;7.53;6.82;;;12.20;80.00;;;10.97;100.00;96562.13;6064667;23;20014;-64
2023/09/26 02:19:49;;;;;;;8.80;7.25;;;12.20;80.00;;;10.98;100.00;96566.41;6065565;23;20373;-67
2023/09/26 02:22:16;;;;;;;10.13;7.82;;;12.20;80.00;;;10.96;100.00;96560.50;6041694;23;20017;-67
2023/09/26 02:24:41;;;;;;;11.95;8.63;;;12.20;80.10;;;10.95;100.00;96560.69;6065274;23;20117;-67
2023/09/26 02:27:07;;;;;;;9.52;8.57;;;12.20;80.00;;;10.94;100.00;96554.59;6089220;23;20090;-66
2023/09/26 02:29:33;;;;;;;12.02;10.77;;;12.20;80.10;;;10.95;100.00;96558.06;6041070;23;20018;-66
2023/09/26 02:31:58;;;;;;;11.35;10.15;;;12.20;80.60;;;10.94;100.00;96551.97;6062815;23;20093;-66
2023/09/26 02:34:24;;;;;;;14.32;11.82;;;12.20;80.60;;;10.90;100.00;96555.97;6040898;23;20088;-64
2023/09/26 02:36:50;;;;;;;15.13;12.27;;;12.10;80.70;;;10.89;100.00;96549.06;6066412;23;20006;-66
2023/09/26 02:39:17;;;;;;;15.85;12.55;;;12.20;80.80;;;10.88;100.00;96547.44;6017842;23;20029;-66
2023/09/26 02:41:43;;;;;;;13.77;12.38;;;12.10;80.90;;;10.89;100.00;96542.97;6065288;23;20018;-65
2023/09/26 02:44:08;;;;;;;16.23;12.77;;;12.20;80.80;;;10.88;100.00;96544.81;6017545;23;20065;-67
2023/09/26 02:46:34;;;;;;;16.67;12.80;;;12.10;80.80;;;10.90;100.00;96550.69;6040955;23;20041;-66
2023/09/26 02:49:00;;;;;;;14.35;11.80;;;12.10;80.70;;;10.88;100.00;96546.63;6090139;23;20081;-66
2023/09/26 02:51:27;;;;;;;13.15;11.68;;;12.10;80.90;;;10.87;100.00;96550.25;6088477;23;20685;-69
2023/09/26 02:53:52;;;;;;;12.40;11.00;;;12.10;80.80;;;10.82;100.00;96537.59;6041563;23;20333;-67
2023/09/26 02:56:18;;;;;;;12.52;11.05;;;12.10;80.90;;;10.80;100.00;96536.16;6088658;23;20010;-66
2023/09/26 02:58:44;;;;;;;13.25;10.15;;;12.00;80.90;;;10.78;100.00;96531.06;6088913;23;20659;-66
2023/09/26 03:01:15;;;;;;;11.30;10.10;;;12.00;81.10;;;10.77;100.00;96532.06;6042315;23;20013;-67
2023/09/26 03:03:41;;;;;;;12.75;10.82;;;12.00;81.30;;;10.76;100.00;96527.81;6041061;23;20019;-66
2023/09/26 03:06:07;;;;;;;15.60;12.98;;;12.00;81.10;;;10.77;100.00;96523.34;6017163;23;20030;-67
2023/09/26 03:08:33;;;;;;;14.10;12.60;;;12.00;81.40;;;10.80;100.00;96529.06;6088908;23;20019;-67
2023/09/26 03:10:59;;;;;;;17.25;13.65;;;12.10;81.30;;;10.80;100.00;96533.53;6041216;23;20368;-67
2023/09/26 03:13:26;;;;;;;14.30;11.82;;;12.10;81.50;;;10.78;100.00;96525.81;6040182;23;20002;-65
2023/09/26 03:15:55;;;;;;;15.55;13.07;;;12.10;81.20;;;10.77;100.00;96529.44;6066148;23;20055;-67
2023/09/26 03:18:21;;;;;;;15.18;11.88;;;12.10;81.40;;;10.77;100.00;96539.13;6060672;23;20021;-66
2023/09/26 03:20:47;;;;;;;12.23;11.02;;;12.10;80.90;;;10.76;100.00;96527.81;6039152;23;20022;-68
2023/09/26 03:23:13;;;;;;;25.67;19.65;;;12.10;80.00;;;10.73;100.00;96522.91;6088843;23;20022;-65
2023/09/26 03:25:39;;;;;;;19.48;17.10;;;12.10;80.10;;;10.72;100.00;96526.53;6041434;23;20122;-67
2023/09/26 03:28:05;;;;;;;15.30;13.25;;;12.10;80.10;;;10.71;100.00;96519.63;6042003;23;20010;-66
2023/09/26 03:30:30;;;;;;;26.05;20.42;;;12.10;80.10;;;10.68;100.00;96510.28;6038178;23;20566;-66
2023/09/26 03:32:56;;;;;;;24.25;19.40;;;12.00;80.10;;;10.65;100.00;96513.28;6088508;23;20023;-67
2023/09/26 03:35:22;;;;;;;23.25;19.25;;;12.00;80.10;;;10.63;100.00;96512.63;6064591;23;20021;-66
2023/09/26 03:37:48;;;;;;;17.00;13.48;;;12.00;79.90;;;10.63;100.00;96511.81;6088867;23;20006;-65
2023/09/26 03:40:13;;;;;;;19.48;16.00;;;12.00;79.80;;;10.61;100.00;96513.78;6090796;23;20061;-65
2023/09/26 03:42:39;;;;;;;14.23;11.68;;;11.90;79.90;;;10.59;100.00;96511.34;6088242;23;20015;-66
2023/09/26 03:45:06;;;;;;;19.02;13.55;;;11.80;80.00;;;10.56;100.00;96510.88;6064817;23;20029;-66
2023/09/26 03:47:32;;;;;;;16.75;13.32;;;11.80;79.80;;;10.50;100.00;96519.50;6040348;23;20010;-66
2023/09/26 03:49:58;;;;;;;12.80;9.75;;;11.80;79.60;;;10.47;100.00;96515.41;6065325;23;20475;-64
2023/09/26 03:52:24;;;;;;;9.50;8.25;;;11.70;79.60;;;10.43;100.00;96517.59;6040374;23;20013;-68
2023/09/26 03:54:50;;;;;;;9.23;7.43;;;11.70;79.40;;;10.42;100.00;96515.97;6064407;23;20038;-65
2023/09/26 03:57:15;;;;;;;10.30;6.88;;;11.70;79.30;;;10.39;100.00;96518.91;6087905;23;20521;-66
2023/09/26 03:59:41;;;;;;;9.52;6.85;;;11.70;79.20;;;10.38;100.00;96519.09;6065053;23;20516;-66
2023/09/26 04:02:07;;;;;;;8.93;6.43;;;11.70;79.20;;;10.36;100.00;96521.09;6089783;23;20006;-66
2023/09/26 04:04:33;;;;;;;12.32;9.25;;;11.70;79.20;;;10.35;100.00;96528.16;6041918;23;20345;-65
2023/09/26 04:06:59;;;;;;;14.50;11.82;;;11.70;79.50;;;10.36;100.00;96521.09;6066627;23;20135;-66
2023/09/26 04:09:25;;;;;;;15.43;11.35;;;11.70;79.80;;;10.36;100.00;96521.91;6090042;23;20015;-66
2023/09/26 04:11:50;;;;;;;20.23;10.52;;;11.70;80.30;;;10.37;100.00;96526.16;6044261;23;20021;-66
2023/09/26 04:14:16;;;;;;;22.70;13.77;;;11.70;80.40;;;10.34;100.00;96523.06;6091593;23;20021;-66
2023/09/26 04:16:42;;;;;;;30.15;22.48;;;11.70;80.60;;;10.35;100.00;96530.78;6040197;23;20015;-66
2023/09/26 04:19:08;;;;;;;21.30;12.73;;;11.80;80.70;;;10.35;100.00;96527.34;6018313;23;20117;-65
2023/09/26 04:21:34;;;;;;;18.27;10.93;;;11.70;80.60;;;10.34;100.00;96529.16;6017150;23;20014;-64
2023/09/26 04:24:04;;;;;;;12.43;8.80;;;11.70;80.50;;;10.34;100.00;96526.53;5993886;23;20030;-63
2023/09/26 04:26:29;;;;;;;27.45;21.45;;;11.70;80.40;;;10.34;100.00;96528.34;6041674;23;20014;-63
2023/09/26 04:28:55;;;;;;;30.83;19.85;;;11.80;80.30;;;10.34;100.00;96529.16;5994426;23;20098;-64
2023/09/26 04:31:21;;;;;;;39.20;21.52;;;11.70;80.20;;;10.37;100.00;96530.59;5993560;23;20429;-65
2023/09/26 04:33:50;;;;;;;23.45;14.88;;;11.70;80.40;;;10.36;100.00;96531.59;6018004;23;20701;-64
2023/09/26 04:36:16;;;;;;;23.92;13.43;;;11.80;80.70;;;10.38;100.00;96522.53;6017857;23;20111;-63
2023/09/26 04:38:42;;;;;;;21.00;12.05;;;11.80;80.70;;;10.40;100.00;96525.00;5994621;23;20022;-65
2023/09/26 04:41:08;;;;;;;30.58;14.43;;;11.80;80.90;;;10.35;100.00;96530.78;5994583;23;20439;-66
2023/09/26 04:43:34;;;;;;;21.60;13.35;;;11.80;81.40;;;10.33;100.00;96527.53;6017309;23;20492;-65
2023/09/26 04:46:00;;;;;;;19.15;13.00;;;11.80;81.40;;;10.34;100.00;96531.78;5995137;23;20010;-65
2023/09/26 04:48:26;;;;;;;21.40;13.50;;;11.70;81.80;;;10.34;100.00;96537.03;5993723;23;20575;-64
2023/09/26 04:50:52;;;;;;;19.35;12.68;;;11.70;81.80;;;10.33;100.00;96535.41;6018042;23;20137;-64
2023/09/26 04:53:17;;;;;;;23.13;13.15;;;11.70;81.80;;;10.33;100.00;96527.53;5993961;23;20262;-66
2023/09/26 04:58:13;;;;;;;21.20;14.27;;;11.70;82.00;;;10.33;100.00;96524.88;6087505;23;20223;-67
2023/09/26 05:00:39;;;;;;;49.17;13.68;;;11.80;82.10;;;10.34;100.00;96525.69;6090138;23;20018;-67
2023/09/26 05:03:05;;;;;;;25.83;14.18;;;11.70;82.10;;;10.32;100.00;96532.94;6068606;23;20018;-67
2023/09/26 05:05:31;;;;;;;28.33;14.40;;;11.70;82.20;;;10.30;100.00;96530.50;6068995;23;20638;-67
2023/09/26 05:07:56;;;;;;;41.47;14.10;;;11.70;82.20;;;10.28;100.00;96527.25;6088716;23;20089;-68
2023/09/26 05:10:22;;;;;;;33.85;14.18;;;11.80;82.30;;;10.27;100.00;96533.50;6064093;23;20025;-67
2023/09/26 05:12:48;;;;;;;24.48;14.88;;;11.70;82.20;;;10.30;100.00;96534.94;6065156;23;20085;-67
2023/09/26 05:15:15;;;;;;;24.75;15.82;;;11.80;82.40;;;10.32;100.00;96531.16;6066278;23;20483;-67
2023/09/26 05:17:53;;;;;;;39.10;15.65;;;11.80;82.60;;;10.32;100.00;96527.69;6040112;23;20033;-67
2023/09/26 05:20:19;;;;;;;112.65;16.25;;;11.80;82.80;;;10.31;100.00;96526.88;6064497;23;20049;-66
2023/09/26 05:22:47;;;;;;;45.88;15.88;;;11.80;82.90;;;10.33;100.00;96526.69;6040457;23;20014;-67
2023/09/26 05:25:13;;;;;;;35.95;15.75;;;11.80;83.00;;;10.31;100.00;96537.41;6064558;23;20017;-67
2023/09/26 05:27:39;;;;;;;43.65;16.55;;;11.80;83.00;;;10.32;100.00;96535.59;6041272;23;20018;-67
2023/09/26 05:30:11;;;;;;;36.78;16.63;;;11.80;83.00;;;10.32;100.00;96539.03;6064302;23;20022;-67
2023/09/26 05:32:37;;;;;;;46.03;17.83;;;11.80;83.20;;;10.33;100.00;96540.66;6064216;23;20133;-67
2023/09/26 05:35:04;;;;;;;35.17;17.77;;;11.80;83.30;;;10.35;100.00;96538.69;6040595;23;20010;-66
2023/09/26 05:37:30;;;;;;;69.78;23.48;;;11.90;83.10;;;10.37;100.00;96536.69;6021282;23;20006;-66
2023/09/26 05:39:56;;;;;;;45.47;18.45;;;11.90;82.80;;;10.40;100.00;96538.13;6091764;23;20018;-67
2023/09/26 05:42:22;;;;;;;56.40;15.50;;;11.90;82.80;;;10.41;100.00;96534.53;6018572;23;20070;-66
2023/09/26 05:44:47;;;;;;;47.65;15.27;;;12.00;82.90;;;10.45;100.00;96538.44;6065827;23;20076;-66
2023/09/26 05:47:13;;;;;;;23.65;13.80;;;12.00;82.90;;;10.46;100.00;96542.72;6065796;23;20018;-66
2023/09/26 05:49:41;;;;;;;53.13;14.15;;;12.00;82.60;;;10.46;100.00;96536.63;6067981;23;20034;-67
2023/09/26 05:52:07;;;;;;;20.02;12.90;;;12.00;82.40;;;10.48;100.00;96534.66;6093336;23;20014;-67
2023/09/26 05:54:33;;;;;;;31.70;13.85;;;12.00;82.60;;;10.48;100.00;96545.16;6068025;23;20026;-66
2023/09/26 05:56:59;;;;;;;24.83;12.32;;;12.10;82.60;;;10.50;100.00;96537.91;6092317;23;20025;-67
2023/09/26 05:59:25;;;;;;;16.50;12.40;;;12.10;82.50;;;10.54;100.00;96539.19;6067967;23;20010;-67
2023/09/26 06:01:51;;;;;;;37.80;25.15;;;12.10;82.30;;;10.58;100.00;96543.09;6068644;23;20105;-66
2023/09/26 06:04:16;;;;;;;69.25;31.33;;;12.20;82.10;;;10.61;100.00;96550.63;6068256;23;20113;-66
2023/09/26 06:06:42;;;;;;;21.23;18.50;;;12.10;81.70;;;10.61;100.00;96542.72;6067963;23;20063;-68
2023/09/26 06:09:08;;;;;;;22.95;14.10;;;12.20;81.90;;;10.63;100.00;96538.09;6078181;23;20023;-66
2023/09/26 06:11:34;;;;;;;16.85;13.23;;;12.20;81.70;;;10.63;100.00;96535.47;6068730;23;20011;-66
2023/09/26 06:14:00;;;;;;;14.73;12.90;;;12.30;81.40;;;10.65;100.00;96534.31;6044411;23;20014;-67
2023/09/26 06:16:26;;;;;;;14.13;12.65;;;12.40;81.30;;;10.70;100.00;96539.06;6068358;23;20018;-66
2023/09/26 06:18:52;;;;;;;16.10;13.20;;;12.40;81.10;;;10.72;100.00;96537.06;6093644;23;20170;-67
2023/09/26 06:21:18;;;;;;;36.13;14.35;;;12.40;80.90;;;10.76;100.00;96538.31;6092469;23;20488;-67
2023/09/26 06:23:44;;;;;;;19.33;14.40;;;12.50;80.70;;;10.78;100.00;96551.31;6116703;23;20121;-68
2023/09/26 06:26:09;;;;;;;24.05;14.57;;;12.50;81.10;;;10.81;100.00;96549.13;6116722;23;20393;-67
2023/09/26 06:28:35;;;;;;;61.38;15.40;;;12.50;81.40;;;10.82;100.00;96547.31;6116890;23;20097;-67
2023/09/26 06:31:09;;;;;;;20.55;14.15;;;12.50;81.00;;;10.84;100.00;96540.06;6093413;23;20025;-67
2023/09/26 06:33:35;;;;;;;42.47;15.40;;;12.50;81.30;;;10.87;100.00;96542.34;6067889;23;20026;-67
2023/09/26 06:36:02;;;;;;;24.25;13.85;;;12.50;81.10;;;10.90;100.00;96540.19;6068704;23;20014;-67
2023/09/26 06:38:28;;;;;;;14.77;13.35;;;12.60;81.40;;;10.92;100.00;96538.19;6068548;23;20089;-67
2023/09/26 06:41:05;;;;;;;21.17;14.20;;;12.60;81.30;;;10.96;100.00;96543.88;6094186;23;20364;-67
2023/09/26 06:43:31;;;;;;;15.68;14.10;;;12.70;81.10;;;10.99;100.00;96536.44;6044111;23;20064;-68
2023/09/26 06:45:56;;;;;;;20.48;18.38;;;12.80;80.90;;;11.06;100.00;96544.44;6045113;23;20460;-67
2023/09/26 06:48:23;;;;;;;32.70;16.55;;;12.70;80.90;;;11.10;100.00;96534.38;6068260;23;20015;-66
2023/09/26 06:50:49;;;;;;;22.88;18.63;;;12.80;80.80;;;11.18;100.00;96542.19;6068703;23;20010;-66
2023/09/26 06:53:14;;;;;;;27.92;17.73;;;13.00;80.40;;;11.25;100.00;96535.19;6091981;23;20404;-66
2023/09/26 06:55:40;;;;;;;19.83;17.55;;;13.10;80.20;;;11.36;100.00;96542.63;6116694;23;20329;-66
2023/09/26 06:58:06;;;;;;;20.08;18.05;;;13.20;80.10;;;11.43;100.00;96545.34;6092743;23;20006;-66
2023/09/26 07:00:32;;;;;;;18.05;16.17;;;13.40;80.20;;;11.54;100.00;96545.72;6092280;23;20102;-67
2023/09/26 07:02:58;;;;;;;19.38;16.90;;;13.60;79.80;;;11.61;100.00;96549.22;6093876;23;20018;-66
2023/09/26 07:05:26;;;;;;;26.83;19.55;;;13.50;79.50;;;11.74;100.00;96547.75;6116601;23;20014;-66
2023/09/26 07:07:54;;;;;;;27.08;18.95;;;13.70;79.40;;;11.83;100.00;96544.03;6092215;23;20089;-66
2023/09/26 07:10:22;;;;;;;18.65;16.75;;;13.80;79.00;;;11.91;100.00;96549.19;6116162;23;20045;-66
2023/09/26 07:12:48;;;;;;;18.33;14.30;;;13.90;78.60;;;12.01;100.00;96544.47;6117107;23;20010;-66
2023/09/26 07:15:14;;;;;;;19.55;17.45;;;14.10;78.40;;;12.09;100.00;96551.41;6116254;23;20018;-67
2023/09/26 07:17:40;;;;;;;23.95;18.33;;;14.10;78.10;;;12.18;100.00;96543.19;6116691;23;20021;-66
2023/09/26 07:20:13;;;;;;;40.33;18.38;;;14.20;77.80;;;12.25;100.00;96541.44;6093694;23;20346;-66
2023/09/26 07:22:40;;;;;;;45.70;16.55;;;14.20;78.20;;;12.33;100.00;96550.25;6115934;23;20015;-66
2023/09/26 07:25:07;;;;;;;17.42;15.82;;;14.30;77.80;;;12.39;100.00;96541.56;6092460;23;20013;-66
2023/09/26 07:27:33;;;;;;;19.98;16.20;;;14.50;77.60;;;12.49;100.00;96547.34;6044459;23;20030;-66
2023/09/26 07:29:59;;;;;;;37.67;16.20;;;14.60;77.40;;;12.61;100.00;96548.47;6092636;23;20053;-66
2023/09/26 07:32:24;;;;;;;31.58;16.17;;;14.70;77.00;;;12.68;100.00;96551.97;6091588;23;20026;-66
2023/09/26 07:34:50;;;;;;;17.92;16.15;;;14.90;76.70;;;12.80;100.00;96550.44;6116534;23;20014;-69
2023/09/26 07:37:16;;;;;;;17.50;16.00;;;15.00;76.40;;;12.92;100.00;96547.28;6117247;23;20012;-67
2023/09/26 07:39:44;;;;;;;17.75;16.08;;;15.10;76.40;;;13.02;100.00;96555.69;6042739;23;20029;-66
2023/09/26 07:42:10;;;;;;;18.88;17.17;;;15.10;76.10;;;13.13;100.00;96549.88;6068557;23;20010;-67
2023/09/26 07:44:35;;;;;;;19.63;17.63;;;15.30;75.40;;;13.22;100.00;96548.72;6091656;23;20023;-66
2023/09/26 07:47:02;;;;;;;36.92;19.45;;;15.50;75.60;;;13.33;100.00;96550.81;6067922;23;20020;-67
2023/09/26 07:49:28;;;;;;;20.58;18.45;;;15.60;75.00;;;13.42;100.00;96552.31;6115905;23;20085;-67
2023/09/26 07:51:54;;;;;;;20.65;18.70;;;15.70;75.30;;;13.54;100.00;96562.31;6093021;23;20515;-67
2023/09/26 07:54:20;;;;;;;21.38;19.38;;;15.80;74.90;;;13.65;100.00;96556.47;6116756;23;20014;-67
2023/09/26 07:56:46;;;;;;;21.35;19.35;;;16.00;74.30;;;13.76;100.00;96559.34;6091949;23;20334;-67
2023/09/26 07:59:11;;;;;;;21.65;19.55;;;16.10;74.30;;;13.90;100.00;96557.59;6092145;23;20010;-66
2023/09/26 08:01:37;;;;;;;24.10;21.60;;;16.30;74.60;;;14.04;100.00;96559.28;6116140;23;20014;-67
2023/09/26 08:04:03;;;;;;;28.05;24.50;;;16.30;74.30;;;14.14;100.00;96558.06;6116276;23;20006;-67
2023/09/26 08:06:29;;;;;;;29.30;26.40;;;16.30;74.10;;;14.21;100.00;96558.88;6090939;23;20021;-67
2023/09/26 08:08:55;;;;;;;26.35;23.67;;;16.40;74.50;;;14.30;100.00;96565.63;6068126;23;20019;-67
2023/09/26 08:11:27;;;;;;;24.30;21.80;;;16.60;74.20;;;14.40;100.00;96564.22;6115594;23;20010;-67
2023/09/26 08:13:54;;;;;;;23.30;21.08;;;16.60;73.70;;;14.49;100.00;96561.44;6091582;23;20430;-67
2023/09/26 08:16:20;;;;;;;24.48;22.10;;;16.80;73.50;;;14.57;100.00;96564.69;6043304;23;20061;-67
2023/09/26 08:18:46;;;;;;;22.77;20.50;;;16.90;72.90;;;14.69;100.00;96564.88;6116652;23;20006;-67
2023/09/26 08:21:11;;;;;;;22.90;20.60;;;17.10;72.70;;;14.78;100.00;96565.50;6067911;23;20532;-67
2023/09/26 08:23:40;;;;;;;21.75;19.65;;;17.10;72.30;;;14.84;100.00;96570.00;6115576;23;20416;-67
2023/09/26 08:26:10;;;;;;;23.80;21.40;;;17.10;72.40;;;14.93;100.00;96574.88;6044503;23;20014;-67
2023/09/26 08:28:36;;;;;;;24.30;21.73;;;17.20;71.70;;;14.96;100.00;96568.38;6068351;23;20010;-67
2023/09/26 08:31:07;;;;;;;24.02;21.55;;;17.00;72.10;;;15.01;100.00;96565.91;6092313;23;20082;-67
2023/09/26 08:33:34;;;;;;;23.05;20.85;;;17.10;72.20;;;15.09;100.00;96568.34;6115082;23;20025;-67
2023/09/26 08:36:00;;;;;;;22.48;20.35;;;17.20;72.30;;;15.15;100.00;96562.22;6067548;23;20021;-67
2023/09/26 08:38:25;;;;;;;23.25;21.00;;;17.30;72.50;;;15.24;100.00;96566.28;6115932;23;20030;-67
2023/09/26 08:40:51;;;;;;;23.25;21.15;;;17.50;71.60;;;15.29;100.00;96563.84;6115715;23;20480;-66
2023/09/26 08:43:26;;;;;;;22.27;20.05;;;17.60;70.90;;;15.41;100.00;96560.56;6068028;23;20147;-66
2023/09/26 08:45:52;;;;;;;21.27;19.00;;;17.70;70.50;;;15.54;100.00;96571.13;6068355;23;20074;-66
2023/09/26 08:48:18;;;;;;;21.63;19.42;;;18.10;70.50;;;15.67;100.00;96559.69;6091479;23;20064;-66
2023/09/26 08:50:44;;;;;;;22.15;20.02;;;18.20;69.80;;;15.75;100.00;96560.28;6091600;23;20065;-66
2023/09/26 08:53:09;;;;;;;21.73;19.63;;;18.30;69.50;;;15.88;100.00;96562.88;6091372;23;20081;-66
2023/09/26 08:55:37;;;;;;;22.83;20.52;;;18.60;68.90;;;16.09;100.00;96560.94;6091205;23;20010;-66
2023/09/26 08:58:02;;;;;;;22.25;20.08;;;19.00;67.30;;;16.27;100.00;96558.38;6115942;23;20015;-66
2023/09/26 09:00:28;;;;;;;22.00;19.75;;;19.50;66.60;;;16.57;100.00;96553.31;6067499;23;20361;-67
2023/09/26 09:02:54;;;;;;;21.55;19.45;;;20.00;64.70;;;16.94;100.00;96551.59;6090905;23;20491;-66
2023/09/26 09:05:21;;;;;;;21.13;18.92;;;20.90;61.70;;;17.35;100.00;96548.34;6140018;23;20405;-66
2023/09/26 09:07:47;;;;;;;20.55;18.20;;;21.60;59.50;;;17.80;100.00;96541.94;6091303;23;20010;-66
2023/09/26 09:10:16;;;;;;;20.08;17.98;;;22.50;57.70;;;18.22;97.83;96548.97;6092208;23;20030;-66
2023/09/26 09:12:44;;;;;;;19.13;17.27;;;22.70;56.30;;;18.60;95.04;96539.84;6044575;23;20022;-67
2023/09/26 09:15:15;;;;;;;18.33;16.52;;;22.90;55.10;;;18.92;90.58;96538.50;6091412;23;20025;-66
2023/09/26 09:17:52;;;;;;;18.25;16.38;;;23.30;54.90;;;19.39;88.00;96527.84;6074573;23;20023;-67
2023/09/26 09:20:34;;;;;;;16.08;14.55;;;23.90;53.40;;;19.83;84.12;96517.56;6062855;23;20086;-67
2023/09/26 09:23:06;;;;;;;19.02;17.13;;;24.50;52.10;;;20.30;82.57;96509.38;6039884;23;20006;-66
2023/09/26 09:25:36;;;;;;;17.98;16.17;;;24.90;49.90;;;20.63;84.14;96516.66;6016651;23;20057;-67
2023/09/26 09:28:04;;;;;;;17.53;15.73;;;25.20;49.30;;;20.92;81.91;96507.50;6041158;23;20522;-67
2023/09/26 09:30:36;;;;;;;16.92;15.23;;;25.40;49.00;;;21.30;76.17;96490.72;6040550;23;20014;-67
2023/09/26 09:33:02;;;;;;;17.90;16.10;;;26.10;47.60;;;21.57;77.65;96500.69;6016543;23;20022;-67
2023/09/26 09:35:27;;;;;;;15.43;13.93;;;26.20;46.60;;;21.99;76.50;96495.56;6088106;23;20015;-67
2023/09/26 09:37:54;;;;;;;16.30;14.60;;;27.20;45.50;;;22.40;74.65;96496.78;6064649;23;20027;-67
2023/09/26 09:40:22;;;;;;;21.73;19.48;;;28.00;43.50;;;22.83;72.50;96479.75;6040537;23;20011;-67
2023/09/26 09:42:49;;;;;;;22.45;15.88;;;28.60;42.70;;;23.18;71.15;96479.19;6064624;23;20086;-67
2023/09/26 09:45:15;;;;;;;16.48;14.88;;;29.00;41.00;;;23.49;69.47;96474.00;6040373;23;20019;-68
2023/09/26 09:47:42;;;;;;;17.08;15.38;;;29.50;39.90;;;23.89;69.32;96472.56;6064090;23;20507;-67
2023/09/26 09:50:08;;;;;;;14.77;13.38;;;30.50;38.90;;;24.31;68.51;96475.94;6040915;23;20011;-67
2023/09/26 09:52:34;;;;;;;16.15;12.50;;;31.50;37.20;;;24.77;67.99;96475.16;6063875;23;20037;-67
2023/09/26 09:55:03;;;;;;;16.95;15.07;;;32.30;36.30;;;25.22;63.69;96447.38;6064841;23;20011;-67
2023/09/26 09:57:32;;;;;;;13.98;12.48;;;32.80;35.00;;;25.64;66.49;96466.63;6039984;23;20450;-67
2023/09/26 09:59:57;;;;;;;14.15;12.65;;;33.80;34.40;;;26.12;65.17;96455.38;6017668;23;20019;-67
2023/09/26 10:02:23;;;;;;;13.95;12.55;;;34.50;32.90;;;26.60;63.12;96453.72;6064143;23;20069;-67
2023/09/26 10:04:55;;;;;;;14.20;12.75;;;35.30;31.80;;;27.07;57.42;96417.94;6064154;23;20022;-69